Cottonwood, Oklahoma
Current Conditions -  °F | °C
As of 12:55 AM on Thursday 23 Oct 2014 (Local Time) from KAQR Reporting Station
Clear Clear  
Wind Chill: 63°   Ceiling: Unl
Heat Index: 63°   Visibility: 10mi
Dew Point: 54°   Wind: 0mph
Humidity: 72%   Direction: NA
Pressure: 30.14"   Gusts: NA
Location:  34.5844°N, 96.2026°W
Report Text: KAQR 230555Z AUTO 00000KT 10SM CLR 17/12 A3014 RMK AO2
Loading
Personal Weather Stations






























Interactive Weather Map New forecast layout! Learn more

10-Day Weather Forecast

Advertisements
Track Severe Weather on mobile